Morecambe, United Kingdom
Current Conditions -  °F | °C
As of 9:50 PM on Sunday 23 Nov 2014 (Local Time) from EGXE Reporting Station
Clear Clear  
Wind Chill: 30°   Ceiling: Unl
Heat Index: 30°   Visibility: 6mi
Dew Point: 30°   Wind: 3mph
Humidity: 100%   Direction: 180°S
Pressure: 30.09"   Gusts: NA
Location:  54.18°N, 2.64°W
Report Text: EGXE 232150Z AUTO 18003KT 9999 NCD M01/M01 Q1019
Loading
Personal Weather Stations






























Interactive Weather Map New forecast layout! Learn more

10-Day Weather Forecast

Advertisements
Track Severe Weather on mobile